Hauptseite
METAR-TAF:

METAR-TAF

Flughäfen :

Mersing, Malaysia

Breite: 02-23-00N, Länge: 103-51-34E, Höhe: 3 m

Beobachtung

Neuester Wetterbericht von vor 17 Minuten, um 17:00 UTC
Wind 8 kt aus unterschiedlichen Richtungen
Temperatur 28°C
Luftfeuchtigkeit 84%
Luftdruck 1012 hPa
Sichtweite 10 km oder mehr
Leicht bewölkt in der Höhe von 2500 ft

METAR: WMAU 251700Z VRB08KT 9999 FEW025 28/25 Q1012

Zeit: 01:17 (17:17 UTC)


TAF: fehlend

Wetterbeobachtungen und Prognosen von mehr als 4000 Flughäfen (METAR und TAF Bericht).

Die verfügbaren Stationen werden durch gelbe und rote Markierungen auf der Karte dargestellt.

Führen Sie die Maus auf sie, um den Namen der Station zu sehen.

Darauf klicken, um die Beobachtung von Wetterbeobachtungen und Prognosen zu sehen.

Um die Karte zu ändern : klicken Sie auf den grünen Tasten mit einem schwarzen Kreuz Zum Vergrößern, auf den grünen Button mit einem Gedankenstrich zu verkleinern, oder auf die grünen Pfeile für benachbarte Karten.


METAR-TAF: